Kostas Dimakis — SY8782 — position and weather

sailwx.info

Track history (hours):
 
Tides and Currents Weather Stations Pressure Air Temp Water Temp Dewpoint Dewpoint Depression Visibility Wind Speed Wind Dir Waves Ship Positions

Kostas Dimakis

Last reported at 2017-Nov-20 00:30 UTC. Time now 2017-Nov-21 00:56 UTC.
Position N 37°58' E 023°37'.

Length 67 m; draft 4.8 m.

Type: Cargo ship. MMSI: 239279500.

Date/timePositionNaut miles runAvg speedWind from/ knotsBaromVisibWave heightAir tempDewpointWater temp
2017-Nov-20 00:30N 37°58' E 023°37'0 0.0
2017-Nov-20 00:00N 37°58' E 023°37'0 0.0
2017-Nov-19 23:30N 37°58' E 023°37'0 0.0
2017-Nov-19 23:00N 37°58' E 023°37'0 0.0
2017-Nov-19 22:30N 37°58' E 023°37'0 0.0
2017-Nov-19 22:00N 37°58' E 023°37'0 0.0
2017-Nov-19 21:30N 37°58' E 023°37'0 0.0
2017-Nov-19 21:00N 37°58' E 023°37'0 0.0
2017-Nov-19 20:30N 37°58' E 023°37'0 0.0
2017-Nov-19 20:00N 37°58' E 023°37'0 0.0
2017-Nov-19 19:30N 37°58' E 023°37'0 0.0
2017-Nov-19 19:00N 37°58' E 023°37'0 0.0
2017-Nov-19 18:30N 37°58' E 023°37'0 0.0
2017-Nov-19 18:00N 37°58' E 023°37'0 0.0
2017-Nov-19 17:30N 37°58' E 023°37'0 0.0
2017-Nov-19 17:00N 37°58' E 023°37'0 0.0
2017-Nov-19 16:30N 37°58' E 023°37'0 0.0
2017-Nov-19 16:00N 37°58' E 023°37'0 0.0
2017-Nov-19 15:30N 37°58' E 023°37'0 0.0
2017-Nov-19 15:00N 37°58' E 023°37'0 0.1
2017-Nov-19 10:14N 37°57' E 023°36'1 4.0
2017-Nov-19 10:00N 37°57' E 023°36'4 8.1
2017-Nov-19 09:30N 37°53' E 023°38'4 8.2
2017-Nov-19 09:00N 37°49' E 023°40'5 8.7
2017-Nov-19 08:29N 37°45' E 023°43'  
2017-Nov-16 13:49N 37°03' E 025°02'2 8.2
2017-Nov-16 13:30N 37°05' E 025°04'3 5.9
2017-Nov-16 13:00N 37°05' E 025°08'1 0.0
2017-Nov-15 20:50N 37°05' E 025°08'2 6.1
2017-Nov-15 20:30N 37°07' E 025°07'5 9.0
2017-Nov-15 20:00N 37°11' E 025°07'4 8.7
2017-Nov-15 19:30N 37°15' E 025°08'5 9.4
2017-Nov-15 19:00N 37°20' E 025°08'4 9.0
2017-Nov-15 18:30N 37°25' E 025°08'5 9.0
2017-Nov-15 18:00N 37°29' E 025°09'3 6.5
2017-Nov-15 17:30N 37°32' E 025°09'0 0.0
2017-Nov-15 17:00N 37°32' E 025°09'0 0.0
2017-Nov-15 16:30N 37°32' E 025°09'0 0.0
2017-Nov-15 16:00N 37°32' E 025°09'0 0.0
2017-Nov-15 15:30N 37°32' E 025°09'0 0.0
2017-Nov-15 15:00N 37°32' E 025°09'0 0.0
2017-Nov-15 14:30N 37°32' E 025°09'0 0.0
2017-Nov-15 14:00N 37°32' E 025°09'0 0.0
2017-Nov-15 13:30N 37°32' E 025°09'0 0.0
2017-Nov-15 13:00N 37°32' E 025°09'0 0.0
2017-Nov-15 12:30N 37°32' E 025°09'0 0.0
2017-Nov-15 12:00N 37°32' E 025°09'0 0.0
2017-Nov-15 11:30N 37°32' E 025°09'0 0.0
2017-Nov-15 11:00N 37°32' E 025°09'0 0.0
2017-Nov-15 10:30N 37°32' E 025°09'0 0.0
2017-Nov-15 10:00N 37°32' E 025°09'0 0.0
2017-Nov-15 09:30N 37°32' E 025°09'0 0.0
2017-Nov-15 09:00N 37°32' E 025°09'0 0.0
2017-Nov-15 08:30N 37°32' E 025°09'0 0.0
2017-Nov-15 08:00N 37°32' E 025°09'0 0.0
2017-Nov-15 07:30N 37°32' E 025°09'0 0.0
2017-Nov-15 07:00N 37°32' E 025°09'0 0.0
2017-Nov-15 06:30N 37°32' E 025°09'0 0.0
2017-Nov-15 06:00N 37°32' E 025°09'0 0.4
2017-Nov-15 05:30N 37°32' E 025°09'1 1.9
2017-Nov-15 05:00N 37°33' E 025°08'0 0.0
2017-Nov-15 04:30N 37°33' E 025°08'0 0.0
2017-Nov-15 04:00N 37°33' E 025°08'0 0.0
2017-Nov-15 03:30N 37°33' E 025°08'0 0.0
2017-Nov-15 03:00N 37°33' E 025°08'0 0.0
2017-Nov-15 02:30N 37°33' E 025°08'0 0.0
2017-Nov-15 02:00N 37°33' E 025°08'0 0.0
2017-Nov-15 01:30N 37°33' E 025°08'0 0.0
2017-Nov-15 01:00N 37°33' E 025°08'0 0.0
2017-Nov-15 00:30N 37°33' E 025°08'0 0.0
2017-Nov-15 00:00N 37°33' E 025°08'0 0.0
2017-Nov-14 23:30N 37°33' E 025°08'0 0.0
2017-Nov-14 23:00N 37°33' E 025°08'0 0.0
2017-Nov-14 22:30N 37°33' E 025°08'0 0.0
2017-Nov-14 21:56N 37°33' E 025°08'0 0.0
2017-Nov-14 21:30N 37°33' E 025°08'0 0.0
2017-Nov-14 21:00N 37°33' E 025°08'0 0.0
2017-Nov-14 20:30N 37°33' E 025°08'0 0.0
2017-Nov-14 20:00N 37°33' E 025°08'0 0.0
2017-Nov-14 19:30N 37°33' E 025°08'0 0.0
2017-Nov-14 19:00N 37°33' E 025°08'0 0.0
2017-Nov-14 18:30N 37°33' E 025°08'0 0.0
2017-Nov-14 18:00N 37°33' E 025°08'0 0.0
2017-Nov-14 17:30N 37°33' E 025°08'0 0.0
2017-Nov-14 17:00N 37°33' E 025°08'0 0.3
2017-Nov-14 16:30N 37°33' E 025°08'1 1.9
2017-Nov-14 16:00N 37°32' E 025°09'2 5.0
2017-Nov-14 15:30N 37°30' E 025°09'4 8.5
2017-Nov-14 15:00N 37°26' E 025°09'4 8.6
2017-Nov-14 14:30N 37°21' E 025°09'4 8.9
2017-Nov-14 14:00N 37°17' E 025°08'6 8.7
2017-Nov-14 13:18N 37°11' E 025°07'2 8.4
2017-Nov-14 13:00N 37°08' E 025°07'3 0.2
2017-Nov-13 22:44N 37°05' E 025°08'2 7.5
2017-Nov-13 22:30N 37°06' E 025°07'5 9.1
2017-Nov-13 22:00N 37°07' E 025°01'87 4.3
2017-Nov-13 01:52N 38°02' E 023°35'0 0.0
2017-Nov-13 01:18N 38°02' E 023°35'0 0.0
2017-Nov-13 00:45N 38°02' E 023°35'0 0.0
2017-Nov-13 00:30N 38°02' E 023°35'0 0.0
2017-Nov-13 00:00N 38°02' E 023°35'0 0.0
2017-Nov-12 23:30N 38°02' E 023°35'0 0.0
2017-Nov-12 23:00N 38°02' E 023°35'0 0.0
2017-Nov-12 22:30N 38°02' E 023°35'0 0.0
2017-Nov-12 21:59N 38°02' E 023°35'0 0.0
2017-Nov-12 21:30N 38°02' E 023°35'0 0.0
2017-Nov-12 20:58N 38°02' E 023°35'0 0.0
2017-Nov-12 20:30N 38°02' E 023°35'0 0.0
2017-Nov-12 20:00N 38°02' E 023°35'0 0.0
2017-Nov-12 19:30N 38°02' E 023°35'0 0.0
2017-Nov-12 19:00N 38°02' E 023°35'0 0.0
2017-Nov-12 18:30N 38°02' E 023°35'0 0.0
2017-Nov-12 18:00N 38°02' E 023°35'0 0.0
2017-Nov-12 17:30N 38°02' E 023°35'0 0.0
2017-Nov-12 16:59N 38°02' E 023°35'0 0.0
2017-Nov-12 16:26N 38°02' E 023°35'0 0.0
2017-Nov-12 15:56N 38°02' E 023°35'0 0.0
2017-Nov-12 15:11N 38°02' E 023°35'0 0.0
2017-Nov-12 15:00N 38°02' E 023°35'0 0.0
2017-Nov-12 14:30N 38°02' E 023°35'0 0.0
2017-Nov-12 14:00N 38°02' E 023°35'0 0.0
2017-Nov-12 13:29N 38°02' E 023°35'0 0.0
2017-Nov-12 13:00N 38°02' E 023°35'0 0.0
2017-Nov-12 12:30N 38°02' E 023°35'0 0.0
2017-Nov-12 12:00N 38°02' E 023°35'0 0.0
2017-Nov-12 11:30N 38°02' E 023°35'0 0.0
2017-Nov-12 11:00N 38°02' E 023°35'2 4.2
2017-Nov-12 10:31N 38°01' E 023°34'3 7.0
2017-Nov-12 10:00N 37°57' E 023°34'4 7.4
2017-Nov-12 09:31N 37°54' E 023°36'4 8.5
2017-Nov-12 09:00N 37°50' E 023°39'4 8.6
2017-Nov-12 08:30N 37°46' E 023°42'  
Track history (hours):
 
Tides and Currents Weather Stations Pressure Air Temp Water Temp Dewpoint Dewpoint Depression Visibility Wind Speed Wind Dir Waves Ship Positions

Kostas Dimakis

Last reported at 2017-Nov-20 00:30 UTC. Time now 2017-Nov-21 00:56 UTC.
Position N 37°58' E 023°37'.

Length 67 m; draft 4.8 m.

Type: Cargo ship. MMSI: 239279500.

Date/timePositionNaut miles runAvg speedWind from/ knotsBaromVisibWave heightAir tempDewpointWater temp
2017-Nov-20 00:30N 37°58' E 023°37'0 0.0
2017-Nov-20 00:00N 37°58' E 023°37'0 0.0
2017-Nov-19 23:30N 37°58' E 023°37'0 0.0
2017-Nov-19 23:00N 37°58' E 023°37'0 0.0
2017-Nov-19 22:30N 37°58' E 023°37'0 0.0
2017-Nov-19 22:00N 37°58' E 023°37'0 0.0
2017-Nov-19 21:30N 37°58' E 023°37'0 0.0
2017-Nov-19 21:00N 37°58' E 023°37'0 0.0
2017-Nov-19 20:30N 37°58' E 023°37'0 0.0
2017-Nov-19 20:00N 37°58' E 023°37'0 0.0
2017-Nov-19 19:30N 37°58' E 023°37'0 0.0
2017-Nov-19 19:00N 37°58' E 023°37'0 0.0
2017-Nov-19 18:30N 37°58' E 023°37'0 0.0
2017-Nov-19 18:00N 37°58' E 023°37'0 0.0
2017-Nov-19 17:30N 37°58' E 023°37'0 0.0
2017-Nov-19 17:00N 37°58' E 023°37'0 0.0
2017-Nov-19 16:30N 37°58' E 023°37'0 0.0
2017-Nov-19 16:00N 37°58' E 023°37'0 0.0
2017-Nov-19 15:30N 37°58' E 023°37'0 0.0
2017-Nov-19 15:00N 37°58' E 023°37'0 0.1
2017-Nov-19 10:14N 37°57' E 023°36'1 4.0
2017-Nov-19 10:00N 37°57' E 023°36'4 8.1
2017-Nov-19 09:30N 37°53' E 023°38'4 8.2
2017-Nov-19 09:00N 37°49' E 023°40'5 8.7
2017-Nov-19 08:29N 37°45' E 023°43'  
2017-Nov-16 13:49N 37°03' E 025°02'2 8.2
2017-Nov-16 13:30N 37°05' E 025°04'3 5.9
2017-Nov-16 13:00N 37°05' E 025°08'1 0.0
2017-Nov-15 20:50N 37°05' E 025°08'2 6.1
2017-Nov-15 20:30N 37°07' E 025°07'5 9.0
2017-Nov-15 20:00N 37°11' E 025°07'4 8.7
2017-Nov-15 19:30N 37°15' E 025°08'5 9.4
2017-Nov-15 19:00N 37°20' E 025°08'4 9.0
2017-Nov-15 18:30N 37°25' E 025°08'5 9.0
2017-Nov-15 18:00N 37°29' E 025°09'3 6.5
2017-Nov-15 17:30N 37°32' E 025°09'0 0.0
2017-Nov-15 17:00N 37°32' E 025°09'0 0.0
2017-Nov-15 16:30N 37°32' E 025°09'0 0.0
2017-Nov-15 16:00N 37°32' E 025°09'0 0.0
2017-Nov-15 15:30N 37°32' E 025°09'0 0.0
2017-Nov-15 15:00N 37°32' E 025°09'0 0.0
2017-Nov-15 14:30N 37°32' E 025°09'0 0.0
2017-Nov-15 14:00N 37°32' E 025°09'0 0.0
2017-Nov-15 13:30N 37°32' E 025°09'0 0.0
2017-Nov-15 13:00N 37°32' E 025°09'0 0.0
2017-Nov-15 12:30N 37°32' E 025°09'0 0.0
2017-Nov-15 12:00N 37°32' E 025°09'0 0.0
2017-Nov-15 11:30N 37°32' E 025°09'0 0.0
2017-Nov-15 11:00N 37°32' E 025°09'0 0.0
2017-Nov-15 10:30N 37°32' E 025°09'0 0.0
2017-Nov-15 10:00N 37°32' E 025°09'0 0.0
2017-Nov-15 09:30N 37°32' E 025°09'0 0.0
2017-Nov-15 09:00N 37°32' E 025°09'0 0.0
2017-Nov-15 08:30N 37°32' E 025°09'0 0.0
2017-Nov-15 08:00N 37°32' E 025°09'0 0.0
2017-Nov-15 07:30N 37°32' E 025°09'0 0.0
2017-Nov-15 07:00N 37°32' E 025°09'0 0.0
2017-Nov-15 06:30N 37°32' E 025°09'0 0.0
2017-Nov-15 06:00N 37°32' E 025°09'0 0.4
2017-Nov-15 05:30N 37°32' E 025°09'1 1.9
2017-Nov-15 05:00N 37°33' E 025°08'0 0.0
2017-Nov-15 04:30N 37°33' E 025°08'0 0.0
2017-Nov-15 04:00N 37°33' E 025°08'0 0.0
2017-Nov-15 03:30N 37°33' E 025°08'0 0.0
2017-Nov-15 03:00N 37°33' E 025°08'0 0.0
2017-Nov-15 02:30N 37°33' E 025°08'0 0.0
2017-Nov-15 02:00N 37°33' E 025°08'0 0.0
2017-Nov-15 01:30N 37°33' E 025°08'0 0.0
2017-Nov-15 01:00N 37°33' E 025°08'0 0.0
2017-Nov-15 00:30N 37°33' E 025°08'0 0.0
2017-Nov-15 00:00N 37°33' E 025°08'0 0.0
2017-Nov-14 23:30N 37°33' E 025°08'0 0.0
2017-Nov-14 23:00N 37°33' E 025°08'0 0.0
2017-Nov-14 22:30N 37°33' E 025°08'0 0.0
2017-Nov-14 21:56N 37°33' E 025°08'0 0.0
2017-Nov-14 21:30N 37°33' E 025°08'0 0.0
2017-Nov-14 21:00N 37°33' E 025°08'0 0.0
2017-Nov-14 20:30N 37°33' E 025°08'0 0.0
2017-Nov-14 20:00N 37°33' E 025°08'0 0.0
2017-Nov-14 19:30N 37°33' E 025°08'0 0.0
2017-Nov-14 19:00N 37°33' E 025°08'0 0.0
2017-Nov-14 18:30N 37°33' E 025°08'0 0.0
2017-Nov-14 18:00N 37°33' E 025°08'0 0.0
2017-Nov-14 17:30N 37°33' E 025°08'0 0.0
2017-Nov-14 17:00N 37°33' E 025°08'0 0.3
2017-Nov-14 16:30N 37°33' E 025°08'1 1.9
2017-Nov-14 16:00N 37°32' E 025°09'2 5.0
2017-Nov-14 15:30N 37°30' E 025°09'4 8.5
2017-Nov-14 15:00N 37°26' E 025°09'4 8.6
2017-Nov-14 14:30N 37°21' E 025°09'4 8.9
2017-Nov-14 14:00N 37°17' E 025°08'6 8.7
2017-Nov-14 13:18N 37°11' E 025°07'2 8.4
2017-Nov-14 13:00N 37°08' E 025°07'3 0.2
2017-Nov-13 22:44N 37°05' E 025°08'2 7.5
2017-Nov-13 22:30N 37°06' E 025°07'5 9.1
2017-Nov-13 22:00N 37°07' E 025°01'87 4.3
2017-Nov-13 01:52N 38°02' E 023°35'0 0.0
2017-Nov-13 01:18N 38°02' E 023°35'0 0.0
2017-Nov-13 00:45N 38°02' E 023°35'0 0.0
2017-Nov-13 00:30N 38°02' E 023°35'0 0.0
2017-Nov-13 00:00N 38°02' E 023°35'0 0.0
2017-Nov-12 23:30N 38°02' E 023°35'0 0.0
2017-Nov-12 23:00N 38°02' E 023°35'0 0.0
2017-Nov-12 22:30N 38°02' E 023°35'0 0.0
2017-Nov-12 21:59N 38°02' E 023°35'0 0.0
2017-Nov-12 21:30N 38°02' E 023°35'0 0.0
2017-Nov-12 20:58N 38°02' E 023°35'0 0.0
2017-Nov-12 20:30N 38°02' E 023°35'0 0.0
2017-Nov-12 20:00N 38°02' E 023°35'0 0.0
2017-Nov-12 19:30N 38°02' E 023°35'0 0.0
2017-Nov-12 19:00N 38°02' E 023°35'0 0.0
2017-Nov-12 18:30N 38°02' E 023°35'0 0.0
2017-Nov-12 18:00N 38°02' E 023°35'0 0.0
2017-Nov-12 17:30N 38°02' E 023°35'0 0.0
2017-Nov-12 16:59N 38°02' E 023°35'0 0.0
2017-Nov-12 16:26N 38°02' E 023°35'0 0.0
2017-Nov-12 15:56N 38°02' E 023°35'0 0.0
2017-Nov-12 15:11N 38°02' E 023°35'0 0.0
2017-Nov-12 15:00N 38°02' E 023°35'0 0.0
2017-Nov-12 14:30N 38°02' E 023°35'0 0.0
2017-Nov-12 14:00N 38°02' E 023°35'0 0.0
2017-Nov-12 13:29N 38°02' E 023°35'0 0.0
2017-Nov-12 13:00N 38°02' E 023°35'0 0.0
2017-Nov-12 12:30N 38°02' E 023°35'0 0.0
2017-Nov-12 12:00N 38°02' E 023°35'0 0.0
2017-Nov-12 11:30N 38°02' E 023°35'0 0.0
2017-Nov-12 11:00N 38°02' E 023°35'2 4.2
2017-Nov-12 10:31N 38°01' E 023°34'3 7.0
2017-Nov-12 10:00N 37°57' E 023°34'4 7.4
2017-Nov-12 09:31N 37°54' E 023°36'4 8.5
2017-Nov-12 09:00N 37°50' E 023°39'4 8.6
2017-Nov-12 08:30N 37°46' E 023°42'  

Dump ship's entire track history